createdAt,value
2017-09-25T00:01:29.736Z,39.80
2017-09-25T00:03:58.712Z,38.67
2017-09-25T00:06:27.689Z,40.13
2017-09-25T00:08:57.436Z,39.70
2017-09-25T00:11:26.395Z,43.20
2017-09-25T00:13:55.381Z,40.33
2017-09-25T00:16:25.108Z,45.13
2017-09-25T00:18:54.097Z,50.10
2017-09-25T00:21:23.052Z,42.13
2017-09-25T00:23:52.060Z,50.90
2017-09-25T00:26:21.785Z,46.50
2017-09-25T00:28:50.768Z,50.37
2017-09-25T00:31:20.903Z,50.10
2017-09-25T00:33:50.292Z,50.60
2017-09-25T00:36:20.013Z,52.67
2017-09-25T00:38:49.024Z,53.97
2017-09-25T00:41:17.955Z,55.63
2017-09-25T00:43:47.003Z,53.57
2017-09-25T00:46:15.947Z,49.63
2017-09-25T00:48:44.931Z,55.10
2017-09-25T00:51:14.668Z,62.53
2017-09-25T00:53:56.319Z,57.77
2017-09-25T00:56:25.280Z,58.80
2017-09-25T00:58:54.265Z,60.30
2017-09-25T01:01:35.064Z,49.00
2017-09-25T01:04:29.626Z,49.00
2017-09-25T01:06:58.985Z,57.73
2017-09-25T01:09:27.957Z,53.20
2017-09-25T01:11:56.920Z,54.27
2017-09-25T01:14:27.043Z,65.60
2017-09-25T01:16:56.002Z,52.97
2017-09-25T01:19:24.984Z,65.27
2017-09-25T01:21:54.706Z,48.53
2017-09-25T01:24:23.685Z,59.03
2017-09-25T01:26:53.421Z,75.13
2017-09-25T01:29:22.401Z,55.27
2017-09-25T01:31:51.359Z,55.50
2017-09-25T01:34:20.356Z,69.60
2017-09-25T01:36:49.327Z,56.33
2017-09-25T01:39:18.316Z,66.03
2017-09-25T01:41:47.277Z,62.13
2017-09-25T01:44:16.292Z,52.70
2017-09-25T01:46:45.289Z,58.33
2017-09-25T01:49:14.244Z,58.93
2017-09-25T01:51:43.194Z,56.87
2017-09-25T01:54:12.169Z,74.30
2017-09-25T01:56:41.144Z,65.17
2017-09-25T01:59:10.136Z,63.90
2017-09-25T02:01:39.095Z,64.43
2017-09-25T02:04:08.854Z,68.63
2017-09-25T02:06:37.809Z,70.73
2017-09-25T02:09:06.811Z,55.20
2017-09-25T02:11:35.769Z,73.97
2017-09-25T02:14:05.507Z,56.90
2017-09-25T02:16:34.973Z,59.57
2017-09-25T02:19:03.959Z,69.93
2017-09-25T02:21:32.933Z,58.87
2017-09-25T02:24:01.889Z,47.53
2017-09-25T02:26:30.872Z,55.33
2017-09-25T02:29:00.296Z,48.20
2017-09-25T02:31:29.295Z,51.30
2017-09-25T02:33:58.281Z,47.20
2017-09-25T02:36:27.271Z,47.93
2017-09-25T02:38:56.255Z,52.23
2017-09-25T02:41:25.609Z,40.83
2017-09-25T02:43:55.365Z,51.17
2017-09-25T02:46:25.085Z,41.00
2017-09-25T02:48:54.067Z,39.80
2017-09-25T02:51:23.810Z,46.10
2017-09-25T02:53:53.296Z,39.10
2017-09-25T02:56:22.253Z,39.67
2017-09-25T02:58:51.240Z,46.70
2017-09-25T03:01:20.208Z,41.57
2017-09-25T03:03:50.027Z,41.83
2017-09-25T03:06:19.412Z,51.60
2017-09-25T03:08:48.371Z,47.23
2017-09-25T03:11:17.403Z,52.97
2017-09-25T03:13:46.374Z,44.37
2017-09-25T03:16:15.762Z,40.13
2017-09-25T03:18:44.708Z,50.47
2017-09-25T03:21:13.731Z,52.30
2017-09-25T03:23:42.704Z,48.57
2017-09-25T03:26:11.660Z,49.20
2017-09-25T03:28:40.645Z,47.23
2017-09-25T03:31:09.629Z,51.53
2017-09-25T03:33:38.632Z,44.90
2017-09-25T03:36:07.587Z,51.87
2017-09-25T03:38:36.548Z,52.97
2017-09-25T03:41:05.533Z,55.83
2017-09-25T03:43:34.520Z,51.07
2017-09-25T03:46:04.221Z,58.07
2017-09-25T03:48:33.209Z,54.90
2017-09-25T03:51:02.162Z,61.30
2017-09-25T03:53:31.243Z,63.50
2017-09-25T03:56:00.212Z,51.43
2017-09-25T03:58:29.589Z,62.23
2017-09-25T04:00:58.977Z,57.27
2017-09-25T04:03:27.945Z,52.37
2017-09-25T04:05:57.293Z,52.87
2017-09-25T04:08:27.052Z,47.07
2017-09-25T04:10:56.035Z,48.97
2017-09-25T04:13:25.133Z,44.37
2017-09-25T04:15:54.138Z,48.30
2017-09-25T04:18:23.117Z,45.33
2017-09-25T04:20:53.217Z,54.27
2017-09-25T04:23:22.964Z,54.60
2017-09-25T04:25:51.935Z,55.07
2017-09-25T04:28:21.316Z,57.27
2017-09-25T04:30:50.311Z,54.27
2017-09-25T04:33:19.331Z,49.53
2017-09-25T04:35:48.302Z,55.97
2017-09-25T04:38:17.259Z,51.67
2017-09-25T04:40:47.002Z,56.50
2017-09-25T04:43:15.966Z,65.20
2017-09-25T04:45:45.712Z,57.03
2017-09-25T04:48:15.090Z,52.90
2017-09-25T04:50:44.461Z,65.00
2017-09-25T04:53:13.442Z,57.40
2017-09-25T04:55:42.400Z,68.40
2017-09-25T04:58:11.449Z,58.13
2017-09-25T05:00:41.239Z,60.83
2017-09-25T05:03:10.961Z,59.70
2017-09-25T05:05:40.697Z,69.60
2017-09-25T05:08:09.660Z,56.77
2017-09-25T05:10:38.640Z,63.93
2017-09-25T05:13:07.608Z,58.47
2017-09-25T05:15:36.589Z,57.40
2017-09-25T05:18:11.812Z,55.83
2017-09-25T05:20:40.854Z,60.20
2017-09-25T05:23:09.816Z,69.03
2017-09-25T05:25:38.802Z,61.87
2017-09-25T05:28:07.752Z,64.90
2017-09-25T05:30:37.516Z,63.10
2017-09-25T05:33:06.496Z,67.00
2017-09-25T05:35:35.521Z,59.87
2017-09-25T05:38:04.470Z,64.33
2017-09-25T05:40:33.448Z,64.27
2017-09-25T05:43:02.460Z,65.57
2017-09-25T05:45:31.474Z,55.77
2017-09-25T05:48:00.432Z,56.03
2017-09-25T05:50:29.451Z,51.83
2017-09-25T05:52:58.418Z,53.10
2017-09-25T05:55:27.436Z,62.67
2017-09-25T05:57:57.318Z,54.17
2017-09-25T06:00:27.137Z,53.23
2017-09-25T06:02:57.905Z,46.70
2017-09-25T06:05:27.536Z,48.67
2017-09-25T06:07:58.757Z,53.00
2017-09-25T06:10:29.510Z,43.70
2017-09-25T06:12:58.977Z,49.03
2017-09-25T06:15:28.004Z,47.80
2017-09-25T06:17:58.087Z,52.17
2017-09-25T06:20:27.527Z,47.83
2017-09-25T06:22:56.671Z,52.03
2017-09-25T06:25:25.874Z,53.00
2017-09-25T06:27:54.893Z,54.37
2017-09-25T06:30:24.128Z,52.30
2017-09-25T06:32:53.832Z,54.97
2017-09-25T06:35:24.984Z,54.90
2017-09-25T06:37:55.021Z,54.97
2017-09-25T06:40:24.878Z,54.63
2017-09-25T06:42:55.908Z,52.80
2017-09-25T06:45:25.761Z,48.23
2017-09-25T06:47:55.546Z,55.00
2017-09-25T06:50:24.516Z,53.13
2017-09-25T06:52:53.468Z,58.03
2017-09-25T06:55:22.463Z,55.60
2017-09-25T06:57:51.471Z,49.60
2017-09-25T07:00:20.524Z,54.53
2017-09-25T07:02:50.251Z,55.80
2017-09-25T07:05:20.003Z,54.20
2017-09-25T07:07:49.725Z,59.60
2017-09-25T07:10:18.713Z,64.70
2017-09-25T07:12:47.771Z,58.20
2017-09-25T07:15:16.784Z,60.50
2017-09-25T07:17:45.753Z,73.30
2017-09-25T07:20:14.731Z,65.37
2017-09-25T07:22:43.691Z,60.60
2017-09-25T07:25:12.655Z,62.77
2017-09-25T07:27:41.641Z,60.80
2017-09-25T07:30:10.617Z,49.47
2017-09-25T07:32:39.600Z,54.27
2017-09-25T07:35:08.676Z,50.83
2017-09-25T07:37:38.381Z,54.20
2017-09-25T07:40:08.145Z,56.40
2017-09-25T07:42:37.097Z,46.00
2017-09-25T07:45:06.187Z,50.13
2017-09-25T07:47:35.945Z,52.17
2017-09-25T07:50:04.913Z,47.80
2017-09-25T07:52:33.876Z,46.43
2017-09-25T07:55:03.666Z,47.50
2017-09-25T07:57:33.021Z,49.67
2017-09-25T08:00:01.996Z,50.23
2017-09-25T08:02:30.955Z,50.93
2017-09-25T08:04:59.933Z,48.17
2017-09-25T08:07:29.666Z,43.90
2017-09-25T08:09:59.455Z,54.40
2017-09-25T08:12:28.378Z,49.10
2017-09-25T08:14:58.127Z,52.33
2017-09-25T08:17:27.073Z,48.60
2017-09-25T08:19:56.811Z,50.83
2017-09-25T08:22:25.785Z,53.07
2017-09-25T08:24:54.765Z,49.00
2017-09-25T08:27:25.136Z,51.50
2017-09-25T08:29:54.134Z,54.40
2017-09-25T08:32:23.097Z,54.57
2017-09-25T08:34:52.085Z,56.50
2017-09-25T08:37:21.153Z,52.13
2017-09-25T08:39:50.922Z,57.43
2017-09-25T08:42:20.652Z,53.80
2017-09-25T08:44:49.649Z,54.03
2017-09-25T08:47:18.599Z,56.10
2017-09-25T08:49:47.579Z,65.53
2017-09-25T08:52:18.818Z,61.60
2017-09-25T08:54:47.809Z,55.60
2017-09-25T08:57:17.521Z,62.63
2017-09-25T08:59:46.500Z,60.40
2017-09-25T09:02:15.877Z,70.10
2017-09-25T09:04:44.871Z,61.40
2017-09-25T09:07:13.982Z,56.23
2017-09-25T09:09:42.975Z,63.30
2017-09-25T09:12:11.940Z,64.33
2017-09-25T09:14:40.924Z,66.55
2017-09-25T09:17:09.899Z,59.70
2017-09-25T09:19:38.951Z,63.63
2017-09-25T09:22:09.065Z,59.63
2017-09-25T09:24:39.070Z,57.03
2017-09-25T09:27:09.649Z,45.90
2017-09-25T09:29:40.203Z,60.87
2017-09-25T09:32:10.248Z,59.93
2017-09-25T09:34:42.829Z,48.73
2017-09-25T09:37:12.580Z,53.90
2017-09-25T09:39:42.968Z,50.13
2017-09-25T09:42:12.901Z,48.50
2017-09-25T09:44:43.396Z,50.17
2017-09-25T09:47:13.160Z,43.43
2017-09-25T09:49:44.209Z,41.37
2017-09-25T09:52:13.356Z,46.37
2017-09-25T09:54:44.788Z,49.77
2017-09-25T09:57:13.858Z,41.57
2017-09-25T09:59:43.717Z,43.13
2017-09-25T10:02:15.198Z,41.93
2017-09-25T10:04:44.480Z,43.70
2017-09-25T10:07:15.055Z,44.33
2017-09-25T10:09:45.360Z,50.90
2017-09-25T10:12:15.386Z,42.03
2017-09-25T10:14:45.177Z,36.60
2017-09-25T10:17:14.809Z,34.97
2017-09-25T10:19:44.720Z,40.43
2017-09-25T10:22:13.735Z,33.80
2017-09-25T10:24:42.784Z,32.60
2017-09-25T10:27:13.311Z,32.37
2017-09-25T10:29:42.377Z,33.40
2017-09-25T10:32:11.421Z,33.20
2017-09-25T10:34:42.429Z,31.13
2017-09-25T10:37:11.499Z,35.47
2017-09-25T10:39:41.370Z,30.97
2017-09-25T10:42:11.333Z,32.27
2017-09-25T10:44:40.532Z,29.77
2017-09-25T10:47:09.938Z,37.27
2017-09-25T10:49:38.917Z,30.10
2017-09-25T10:52:09.271Z,31.97
2017-09-25T10:54:39.694Z,37.63
2017-09-25T10:57:11.390Z,30.33
2017-09-25T10:59:41.353Z,29.63
2017-09-25T11:02:10.420Z,32.70
2017-09-25T11:04:40.194Z,35.10
2017-09-25T11:07:10.307Z,31.60
2017-09-25T11:09:40.394Z,29.77
2017-09-25T11:12:10.172Z,33.30
2017-09-25T11:14:40.563Z,32.30
2017-09-25T11:17:11.324Z,32.40
2017-09-25T11:19:42.224Z,26.97
2017-09-25T11:22:11.166Z,26.63
2017-09-25T11:24:41.656Z,28.73
2017-09-25T11:27:10.626Z,28.80
2017-09-25T11:29:40.813Z,23.77
2017-09-25T11:32:11.838Z,24.70
2017-09-25T11:34:41.453Z,24.40
2017-09-25T11:37:11.213Z,25.10
2017-09-25T11:39:42.513Z,22.27
2017-09-25T11:42:11.885Z,21.73
2017-09-25T11:44:43.293Z,23.20
2017-09-25T11:47:13.008Z,23.17
2017-09-25T11:49:42.011Z,21.03
2017-09-25T11:52:11.002Z,21.33
2017-09-25T11:54:40.885Z,24.13
2017-09-25T11:57:10.841Z,24.83
2017-09-25T11:59:40.663Z,29.03
2017-09-25T12:02:09.677Z,24.03
2017-09-25T12:04:38.616Z,23.27
2017-09-25T12:07:08.302Z,21.93
2017-09-25T12:09:38.007Z,25.37
2017-09-25T12:12:06.980Z,22.67
2017-09-25T12:14:36.698Z,25.63
2017-09-25T12:17:06.481Z,23.13
2017-09-25T12:19:35.492Z,27.23
2017-09-25T12:22:05.244Z,21.57
2017-09-25T12:24:34.195Z,22.00
2017-09-25T12:27:03.948Z,24.70
2017-09-25T12:29:32.907Z,23.80
2017-09-25T12:32:02.677Z,26.33
2017-09-25T12:34:32.392Z,24.83
2017-09-25T12:37:01.368Z,23.23
2017-09-25T12:39:31.141Z,23.40
2017-09-25T12:42:00.126Z,23.63
2017-09-25T12:44:29.841Z,23.27
2017-09-25T12:46:58.832Z,24.67
2017-09-25T12:49:27.781Z,26.77
2017-09-25T12:51:56.757Z,25.80
2017-09-25T12:54:25.712Z,26.27
2017-09-25T12:56:54.686Z,20.43
2017-09-25T12:59:24.045Z,21.53
2017-09-25T13:01:53.031Z,21.70
2017-09-25T13:04:21.976Z,21.00
2017-09-25T13:06:51.736Z,23.80
2017-09-25T13:09:20.684Z,19.00
2017-09-25T13:11:49.676Z,18.67
2017-09-25T13:14:18.644Z,22.33
2017-09-25T13:16:47.601Z,19.93
2017-09-25T13:19:16.561Z,23.33
2017-09-25T13:21:45.953Z,20.57
2017-09-25T13:24:15.681Z,20.23
2017-09-25T13:26:44.656Z,21.37
2017-09-25T13:29:13.667Z,22.30
2017-09-25T13:31:42.669Z,22.27
2017-09-25T13:34:11.628Z,21.03
2017-09-25T13:36:41.473Z,20.90
2017-09-25T13:39:10.429Z,19.87
2017-09-25T13:41:39.785Z,23.63
2017-09-25T13:44:08.812Z,21.03
2017-09-25T13:46:38.561Z,20.43
2017-09-25T13:49:07.541Z,20.87
2017-09-25T13:51:36.529Z,20.33
2017-09-25T13:54:05.490Z,19.60
2017-09-25T13:56:34.466Z,22.13
2017-09-25T14:04:12.553Z,21.47
2017-09-25T14:06:41.522Z,21.10
2017-09-25T14:09:11.235Z,21.17
2017-09-25T14:11:40.985Z,20.90
2017-09-25T14:14:09.939Z,21.17
2017-09-25T14:16:39.687Z,21.50
2017-09-25T14:19:08.660Z,19.43
2017-09-25T14:21:37.640Z,18.53
2017-09-25T14:24:07.457Z,20.07
2017-09-25T14:26:36.448Z,19.23
2017-09-25T14:29:05.413Z,18.50
2017-09-25T14:31:34.477Z,18.37
2017-09-25T14:34:03.457Z,17.53
2017-09-25T14:36:32.538Z,18.43
2017-09-25T14:39:03.325Z,17.43
2017-09-25T14:41:32.456Z,18.03
2017-09-25T14:44:01.481Z,18.10
2017-09-25T14:46:31.363Z,17.27
2017-09-25T14:49:00.952Z,17.47
2017-09-25T14:51:29.994Z,16.60
2017-09-25T14:53:59.047Z,16.00
2017-09-25T14:56:28.866Z,16.30
2017-09-25T14:58:57.858Z,18.10
2017-09-25T15:01:27.693Z,18.83
2017-09-25T15:03:56.718Z,16.13
2017-09-25T15:06:25.665Z,15.47
2017-09-25T15:08:55.280Z,15.63
2017-09-25T15:11:24.284Z,17.30
2017-09-25T15:13:53.237Z,15.90
2017-09-25T15:16:22.245Z,17.97
2017-09-25T15:18:52.111Z,17.57
2017-09-25T15:21:22.374Z,18.17
2017-09-25T15:23:52.165Z,18.23
2017-09-25T15:26:22.002Z,16.90
2017-09-25T15:28:51.056Z,16.77
2017-09-25T15:31:20.030Z,17.53
2017-09-25T15:33:49.082Z,16.20
2017-09-25T15:36:18.169Z,16.37
2017-09-25T15:38:47.241Z,17.70
2017-09-25T15:41:16.244Z,17.07
2017-09-25T15:43:46.452Z,20.03
2017-09-25T15:46:16.283Z,17.90
2017-09-25T15:48:46.194Z,19.00
2017-09-25T15:51:15.285Z,18.97
2017-09-25T15:53:45.414Z,17.17
2017-09-25T15:56:15.289Z,17.47
2017-09-25T15:58:44.306Z,18.20
2017-09-25T16:01:14.076Z,17.53
2017-09-25T16:03:43.981Z,18.97
2017-09-25T16:06:14.201Z,18.50
2017-09-25T16:08:43.616Z,17.47
2017-09-25T16:11:14.175Z,16.97
2017-09-25T16:13:44.511Z,16.17
2017-09-25T16:16:14.235Z,16.07
2017-09-25T16:18:44.169Z,17.67
2017-09-25T16:21:13.225Z,18.17
2017-09-25T16:23:43.411Z,16.90
2017-09-25T16:26:12.427Z,16.90
2017-09-25T16:28:41.462Z,20.00
2017-09-25T16:31:10.441Z,17.53
2017-09-25T16:33:40.442Z,16.93
2017-09-25T16:36:09.456Z,21.50
2017-09-25T16:38:38.830Z,16.80
2017-09-25T16:41:08.780Z,19.30
2017-09-25T16:43:38.508Z,19.50
2017-09-25T16:46:09.305Z,19.10
2017-09-25T16:48:39.308Z,18.83
2017-09-25T16:51:11.134Z,19.20
2017-09-25T16:53:40.152Z,18.37
2017-09-25T16:56:09.237Z,20.00
2017-09-25T16:58:38.238Z,21.63
2017-09-25T17:01:07.991Z,20.07
2017-09-25T17:03:36.963Z,21.30
2017-09-25T17:06:05.965Z,19.40
2017-09-25T17:08:35.117Z,20.00
2017-09-25T17:11:04.996Z,20.67
2017-09-25T17:13:34.611Z,21.40
2017-09-25T17:16:03.597Z,24.07
2017-09-25T17:18:32.565Z,20.17
2017-09-25T17:21:01.576Z,19.90
2017-09-25T17:23:30.533Z,18.83
2017-09-25T17:25:59.530Z,16.77
2017-09-25T17:28:28.501Z,21.33
2017-09-25T17:30:58.246Z,20.43
2017-09-25T17:33:27.207Z,23.83
2017-09-25T17:35:56.948Z,21.53
2017-09-25T17:38:25.917Z,23.83
2017-09-25T17:40:54.906Z,23.60
2017-09-25T17:43:24.637Z,22.90
2017-09-25T17:45:53.636Z,24.53
2017-09-25T17:48:22.994Z,24.67
2017-09-25T17:50:52.738Z,25.17
2017-09-25T17:53:21.742Z,22.87
2017-09-25T17:55:50.706Z,22.93
2017-09-25T17:58:20.484Z,23.17
2017-09-25T18:00:49.460Z,22.10
2017-09-25T18:03:18.838Z,23.47
2017-09-25T18:05:47.814Z,23.87
2017-09-25T18:08:16.830Z,23.30
2017-09-25T18:10:45.807Z,22.73
2017-09-25T18:13:15.544Z,25.37
2017-09-25T18:15:44.922Z,24.70
2017-09-25T18:18:13.907Z,25.30
2017-09-25T18:20:42.943Z,21.40
2017-09-25T18:23:11.962Z,22.13
2017-09-25T18:25:40.957Z,25.37
2017-09-25T18:28:10.696Z,26.77
2017-09-25T18:30:39.662Z,24.20
2017-09-25T18:33:09.450Z,23.47
2017-09-25T18:35:38.431Z,26.13
2017-09-25T18:38:07.436Z,23.23
2017-09-25T18:40:36.461Z,26.37
2017-09-25T18:43:06.210Z,26.83
2017-09-25T18:45:35.210Z,30.90
2017-09-25T18:48:04.629Z,29.03
2017-09-25T18:50:33.806Z,32.83
2017-09-25T18:53:02.955Z,33.70
2017-09-25T18:55:32.759Z,32.07
2017-09-25T18:58:01.776Z,30.40
2017-09-25T19:00:30.760Z,26.87
2017-09-25T19:02:59.728Z,27.80
2017-09-25T19:05:29.512Z,26.80
2017-09-25T19:07:58.488Z,28.00
2017-09-25T19:10:27.666Z,24.73
2017-09-25T19:12:57.230Z,26.60
2017-09-25T19:15:26.996Z,24.33
2017-09-25T19:17:55.975Z,26.10
2017-09-25T19:20:25.045Z,27.67
2017-09-25T19:22:54.108Z,28.00
2017-09-25T19:25:23.106Z,26.60
2017-09-25T19:27:52.482Z,23.97
2017-09-25T19:30:22.253Z,24.67
2017-09-25T19:32:51.286Z,25.70
2017-09-25T19:35:20.287Z,22.40
2017-09-25T19:37:49.282Z,23.67
2017-09-25T19:40:19.076Z,25.30
2017-09-25T19:42:48.094Z,25.47
2017-09-25T19:45:18.003Z,24.30
2017-09-25T19:47:46.978Z,26.10
2017-09-25T19:50:21.397Z,24.50
2017-09-25T19:52:50.427Z,26.97
2017-09-25T19:55:20.197Z,25.67
2017-09-25T19:57:50.451Z,26.50
2017-09-25T20:00:20.259Z,22.53
2017-09-25T20:02:49.266Z,26.00
2017-09-25T20:05:18.686Z,24.10
2017-09-25T20:07:47.658Z,24.70
2017-09-25T20:10:19.847Z,25.27
2017-09-25T20:12:48.822Z,29.60
2017-09-25T20:15:36.409Z,29.10
2017-09-25T20:18:06.113Z,26.80
2017-09-25T20:20:35.479Z,26.37
2017-09-25T20:23:04.480Z,29.53
2017-09-25T20:25:34.204Z,25.53
2017-09-25T20:28:03.227Z,28.60
2017-09-25T20:30:32.210Z,24.60
2017-09-25T20:33:01.291Z,25.47
2017-09-25T20:35:30.249Z,25.40
2017-09-25T20:37:59.633Z,23.30
2017-09-25T20:40:31.201Z,25.10
2017-09-25T20:43:02.687Z,23.20
2017-09-25T20:45:31.725Z,21.30
2017-09-25T20:48:01.132Z,23.27
2017-09-25T20:50:30.881Z,22.23
2017-09-25T20:53:00.621Z,22.90
2017-09-25T20:55:29.601Z,24.03
2017-09-25T20:57:59.347Z,26.00
2017-09-25T21:00:28.308Z,22.17
2017-09-25T21:02:57.300Z,21.90
2017-09-25T21:05:26.271Z,21.70
2017-09-25T21:07:55.266Z,23.73
2017-09-25T21:10:24.247Z,26.53
2017-09-25T21:12:53.232Z,20.20
2017-09-25T21:15:22.201Z,20.73
2017-09-25T21:17:52.007Z,23.40
2017-09-25T21:20:21.731Z,21.37
2017-09-25T21:22:50.737Z,20.57
2017-09-25T21:25:20.095Z,20.20
2017-09-25T21:27:49.076Z,21.63
2017-09-25T21:30:18.036Z,22.13
2017-09-25T21:32:47.025Z,21.63
2017-09-25T21:35:16.020Z,23.93
2017-09-25T21:37:45.013Z,24.93
2017-09-25T21:40:14.029Z,22.03
2017-09-25T21:42:43.008Z,24.23
2017-09-25T21:45:12.378Z,24.47
2017-09-25T21:47:42.212Z,27.07
2017-09-25T21:50:11.187Z,23.70
2017-09-25T21:52:40.173Z,25.43
2017-09-25T21:55:09.140Z,24.70
2017-09-25T21:57:38.900Z,22.20
2017-09-25T22:00:07.942Z,25.30
2017-09-25T22:02:37.677Z,25.07
2017-09-25T22:05:06.645Z,24.03
2017-09-25T22:07:36.404Z,24.03
2017-09-25T22:10:05.384Z,23.83
2017-09-25T22:12:35.265Z,23.43
2017-09-25T22:15:05.011Z,21.97
2017-09-25T22:17:33.998Z,25.40
2017-09-25T22:20:03.820Z,25.40
2017-09-25T22:22:33.589Z,26.93
2017-09-25T22:25:03.380Z,23.90
2017-09-25T22:27:33.140Z,26.63
2017-09-25T22:30:02.139Z,24.73
2017-09-25T22:32:31.164Z,26.63
2017-09-25T22:35:00.109Z,26.10
2017-09-25T22:37:29.069Z,25.97
2017-09-25T22:40:01.247Z,24.20
2017-09-25T22:42:41.832Z,26.27
2017-09-25T22:45:10.854Z,26.53
2017-09-25T22:47:39.844Z,25.63
2017-09-25T22:50:08.809Z,24.67
2017-09-25T22:52:37.785Z,27.60
2017-09-25T22:55:07.534Z,25.70
2017-09-25T22:57:36.492Z,25.47
2017-09-25T23:00:05.464Z,27.63
2017-09-25T23:02:35.190Z,26.20
2017-09-25T23:05:19.119Z,31.60
2017-09-25T23:07:48.832Z,30.73
2017-09-25T23:10:17.952Z,32.10
2017-09-25T23:12:46.941Z,30.90
2017-09-25T23:15:15.909Z,30.53
2017-09-25T23:17:45.661Z,30.00
2017-09-25T23:20:14.670Z,32.50
2017-09-25T23:22:43.629Z,31.57
2017-09-25T23:25:12.619Z,33.10
2017-09-25T23:27:41.600Z,33.53
2017-09-25T23:30:15.081Z,28.83
2017-09-25T23:32:44.079Z,32.43
2017-09-25T23:35:13.825Z,36.00
2017-09-25T23:37:42.791Z,33.93
2017-09-25T23:40:11.778Z,37.57
2017-09-25T23:42:40.735Z,31.33
2017-09-25T23:45:09.828Z,38.53
2017-09-25T23:47:38.799Z,36.73
2017-09-25T23:50:07.804Z,38.13
2017-09-25T23:52:36.770Z,32.20
2017-09-25T23:55:05.752Z,33.83
2017-09-25T23:57:34.723Z,35.93
